Bathurst AGRICULT. Res Saint, New South Wales

8:06 PM EST on July 22, 2014 (GMT +1000)
Billywillinga (INSWBILL2) Elev 2828 ft | 33.32 °S, 149.45 °E | Change Station

Current weather conditions updated 1 minute ago

Clear
Clear
47.0 °F
Feels Like 47 °F
N
1.0
Wind Variable Wind from SE
Gusts 1.0 mph

Tomorrow is forecast to be Warmer than today.

Today
High -- | Low -- °F
--% Chance of Precip.
Yesterday
High -- | Low -- °F
Precip. -- in
7:00 AM 5:16 PM
Waning Crescent, 18% visible
Pressure 30.18 in
Visibility -9999.0 miles
Clouds
Windchill 47 °F
Dew Point 42 °F
Humidity 84%
Rainfall 0.00 in
Snow Depth Not available.
UV Not available.
Pollen Not available.
Air Quality Not available.
Flu Activity Not available.
METAR YMDG 220900Z AUTO 05001KT //// // NCD 07/04 Q1022

More Conditions Fewer Conditions

Pressure 30.18 in
Visibility -9999.0 miles
Clouds
Windchill 47 °F
Dew Point 42 °F
Humidity 84%
Rainfall 0.00 in
Snow Depth Not available.
UV Not available.
Pollen Not available.
Air Quality Not available.
Flu Activity Not available.
METAR YMDG 220900Z AUTO 05001KT //// // NCD 07/04 Q1022

More Conditions Fewer Conditions

10-Day Weather Forecast

LIGHTNING

Thunderstorms are forecast for your area. Cloud conditions might be right for producing strikes in the next few days, though lightning itself cannot be forecasted.

Lightning is a visible electrical discharge produced by a thunderstorm, based on the build up of oppositely charged particles within a cloud and from cloud to ground.

Know how to stay safe in a lightning storm.

Check out these Lightning WunderPhotos!

Almanac

Astronomy

Jul. 22, 2014 Rise Set
Actual Time 7:00 AM EST 5:16 PM EST
Civil Twilight 6:33 AM EST 5:42 PM EST
Nautical Twilight 6:03 AM EST 6:13 PM EST
Astronomical Twilight 5:33 AM EST 6:42 PM EST
Moon 2:46 AM EST 1:29 PM EST
Length of Visible Light 11h 09m
Length of Day
10h 15m
Tomorrow will be 1m 13s longer.
Waning Crescent, 18% of the Moon is Illuminated
Today
Waning Crescent
Jul 26
New
Aug 3
First Quarter
Aug 10
Full
Aug 17
Last Quarter

Yesterday's Extremes

Country Highs Country Lows

Community

WunderPhotos

Upload Photos

1,736,199 photos uploaded!

Nearby

Snow Depth

Not available.

Earthquake Activity

City Distance Mag. Time & Date
No recent earthquake activity has been reported nearby.
Minimum magnitude displayed is 2.5.

Coastal Water Temperatures

Place Temperature
No Stations Reporting

Nearby Weather Stations

Station Location Temp. Windchill Dew Point Humidity Wind Precip. Elev Updated Type
Billywillinga, Billywillinga 47.0 °F 47 °F 42 °F 84% SE  at  1.0 mph 0.00 in / hr 2828 ft 8:05 PM EST Normal

Show More Stations Show Fewer Stations